Time;durP1;ratioP1;P1;durP2;ratioP2;P2;SDS_P1;SDS_P2;PMS_P1;PMS_P2;Temp;Humidity;BMP_temperature;BMP_pressure;BME280_temperature;BME280_humidity;BME280_pressure;Samples;Min_cycle;Max_cycle;Signal;HPM_P1;HPM_P2
2023/02/21 02:14:26;;;;;;;13.55;8.70;;;;;;;3.35;100.00;92966.31;6215806;23;20008;-77
2023/02/21 02:17:45;;;;;;;14.32;8.63;;;;;;;3.30;100.00;92956.66;6220411;23;20425;-78
2023/02/21 02:20:48;;;;;;;12.15;7.80;;;;;;;3.29;100.00;92954.31;6100283;23;20010;-78
2023/02/21 02:23:32;;;;;;;10.70;7.35;;;;;;;3.28;100.00;92958.69;6099774;23;20077;-78
2023/02/21 02:26:16;;;;;;;11.68;7.93;;;;;;;3.28;100.00;92960.47;6194432;23;20023;-77
2023/02/21 02:28:54;;;;;;;11.65;7.47;;;;;;;3.25;100.00;92953.97;6219291;23;20042;-78
2023/02/21 02:31:39;;;;;;;10.80;7.30;;;;;;;3.22;100.00;92954.44;6193790;23;20013;-77
2023/02/21 02:34:18;;;;;;;12.10;7.63;;;;;;;3.20;100.00;92948.69;6219296;23;20012;-78
2023/02/21 02:36:52;;;;;;;11.30;8.15;;;;;;;3.20;100.00;92950.47;6218942;23;20031;-78
2023/02/21 02:39:35;;;;;;;;;;;;;;;3.19;100.00;92946.34;6221277;23;20444;-77
2023/02/21 02:42:15;;;;;;;12.18;7.93;;;;;;;3.17;100.00;92943.97;6218920;23;19907;-77
2023/02/21 02:44:49;;;;;;;10.57;7.25;;;;;;;3.15;100.00;92943.41;6220951;23;20058;-77
2023/02/21 02:47:23;;;;;;;12.38;7.25;;;;;;;3.17;100.00;92950.94;6219325;23;20043;-77
2023/02/21 02:49:51;;;;;;;11.55;7.75;;;;;;;3.16;100.00;92954.56;6221308;23;20492;-78
2023/02/21 02:52:16;;;;;;;11.65;7.50;;;;;;;3.12;100.00;92957.59;6219858;23;20093;-78
2023/02/21 02:54:42;;;;;;;12.15;8.15;;;;;;;3.12;100.00;92957.59;6195304;23;20107;-77
2023/02/21 02:57:11;;;;;;;13.18;7.97;;;;;;;3.11;100.00;92950.06;6219416;23;20016;-78
2023/02/21 02:59:43;;;;;;;14.30;8.15;;;;;;;3.12;100.00;92954.22;6220534;23;20336;-78
2023/02/21 03:02:31;;;;;;;12.77;8.65;;;;;;;3.12;100.00;92954.22;6218851;23;20399;-78
2023/02/21 03:05:02;;;;;;;12.05;8.50;;;;;;;3.11;100.00;92948.28;6219080;23;20512;-77
2023/02/21 03:07:52;;;;;;;11.38;8.15;;;;;;;3.10;100.00;92951.84;6221328;23;20039;-77
2023/02/21 03:10:26;;;;;;;13.18;8.80;;;;;;;3.06;100.00;92945.59;6217436;23;20013;-78
2023/02/21 03:13:14;;;;;;;12.43;8.30;;;;;;;3.08;100.00;92953.88;6194155;23;20016;-78
2023/02/21 03:15:55;;;;;;;13.57;8.95;;;;;;;3.08;100.00;92943.53;6219115;23;20016;-78
2023/02/21 03:18:36;;;;;;;13.82;9.88;;;;;;;3.10;100.00;92944.09;6219022;23;20066;-77
2023/02/21 03:21:10;;;;;;;15.00;9.73;;;;;;;3.07;100.00;92931.63;6218776;23;20348;-78
2023/02/21 03:23:39;;;;;;;16.05;10.27;;;;;;;3.10;100.00;92936.34;6218405;23;20015;-77
2023/02/21 03:26:09;;;;;;;16.33;10.23;;;;;;;3.07;100.00;92933.44;6217767;23;20023;-78
2023/02/21 03:28:38;;;;;;;15.82;10.38;;;;;;;3.05;100.00;92927.69;6216942;23;20044;-77
2023/02/21 03:31:07;;;;;;;14.80;10.07;;;;;;;3.03;100.00;92927.16;6220144;23;20036;-78
2023/02/21 03:33:33;;;;;;;14.55;9.80;;;;;;;3.02;100.00;92918.59;6217976;23;20019;-78
2023/02/21 03:36:03;;;;;;;14.63;9.68;;;;;;;3.00;100.00;92920.63;6217876;23;20075;-78
2023/02/21 03:38:30;;;;;;;14.88;9.93;;;;;;;3.03;100.00;92919.38;6220981;23;20008;-78
2023/02/21 03:40:55;;;;;;;14.02;10.15;;;;;;;3.02;100.00;92912.66;6221403;23;20007;-77
2023/02/21 03:43:21;;;;;;;14.95;10.25;;;;;;;3.00;100.00;92915.47;6216625;23;20484;-77
2023/02/21 03:45:51;;;;;;;14.00;9.50;;;;;;;2.97;100.00;92910.72;6192058;23;20025;-77
2023/02/21 03:48:18;;;;;;;17.33;10.65;;;;;;;2.97;100.00;92915.91;6216261;23;20453;-77
2023/02/21 03:50:43;;;;;;;16.25;10.50;;;;;;;2.98;100.00;92912.31;6216319;23;20063;-77
2023/02/21 03:53:10;;;;;;;12.70;9.75;;;;;;;2.97;100.00;92909.94;6215794;23;20099;-77
2023/02/21 03:55:37;;;;;;;15.32;10.27;;;;;;;2.96;100.00;92910.97;6215816;23;20008;-77
2023/02/21 03:58:09;;;;;;;18.30;11.95;;;;;;;2.95;100.00;92923.13;6215034;23;20021;-77
2023/02/21 04:00:37;;;;;;;17.50;11.32;;;;;;;2.92;100.00;92908.03;6215239;23;20047;-76
2023/02/21 04:03:02;;;;;;;14.63;10.63;;;;;;;2.94;100.00;92910.41;6191611;23;20005;-78
2023/02/21 04:05:39;;;;;;;18.08;11.93;;;;;;;2.93;100.00;92909.63;6221716;23;20016;-78
2023/02/21 04:08:07;;;;;;;18.45;12.02;;;;;;;2.94;100.00;92915.59;6220913;23;20546;-77
2023/02/21 04:10:32;;;;;;;18.45;12.13;;;;;;;2.91;100.00;92916.81;6220405;23;20012;-77
2023/02/21 04:12:58;;;;;;;18.13;11.82;;;;;;;2.92;100.00;92919.16;6219479;23;20091;-78
2023/02/21 04:15:24;;;;;;;18.23;12.70;;;;;;;2.94;100.00;92928.50;6195819;23;20132;-77
2023/02/21 04:17:50;;;;;;;17.83;12.05;;;;;;;2.94;100.00;92921.53;6221593;23;20053;-78
2023/02/21 04:20:16;;;;;;;17.70;12.77;;;;;;;2.88;100.00;92923.25;6196120;23;20013;-78
2023/02/21 04:22:47;;;;;;;18.20;11.57;;;;;;;2.84;100.00;92919.53;6220563;23;20020;-78
2023/02/21 04:25:14;;;;;;;17.48;11.80;;;;;;;2.86;100.00;92924.47;6220179;23;20111;-78
2023/02/21 04:27:50;;;;;;;18.13;11.30;;;;;;;2.88;100.00;92928.41;6217731;23;20066;-77
2023/02/21 04:30:16;;;;;;;18.40;11.80;;;;;;;2.89;100.00;92931.78;6215086;23;20444;-77
2023/02/21 04:32:42;;;;;;;17.17;11.63;;;;;;;2.88;100.00;92923.25;6218286;23;20023;-77
2023/02/21 04:35:11;;;;;;;19.20;12.20;;;;;;;2.87;100.00;92920.88;6214597;23;20016;-77
2023/02/21 04:37:37;;;;;;;19.35;12.23;;;;;;;2.86;100.00;92924.47;6189835;23;20021;-77
2023/02/21 04:40:03;;;;;;;19.85;12.48;;;;;;;2.85;100.00;92920.31;6214703;23;20124;-77
2023/02/21 04:42:31;;;;;;;22.48;13.88;;;;;;;2.84;100.00;92913.59;6215135;23;20020;-77
2023/02/21 04:44:57;;;;;;;19.42;12.88;;;;;;;2.84;100.00;92913.59;6216898;23;20012;-77
2023/02/21 04:47:22;;;;;;;20.27;13.40;;;;;;;2.85;100.00;92915.16;6214681;23;20020;-77
2023/02/21 04:49:50;;;;;;;22.98;15.05;;;;;;;2.84;100.00;92911.78;6217006;23;20344;-76
2023/02/21 04:52:19;;;;;;;22.65;13.88;;;;;;;2.83;100.00;92907.59;6215539;23;20004;-77
2023/02/21 04:54:46;;;;;;;24.35;14.55;;;;;;;2.84;100.00;92911.78;6217308;23;20013;-78
2023/02/21 04:57:11;;;;;;;22.35;14.30;;;;;;;2.83;100.00;92915.38;6219614;23;20055;-77
2023/02/21 04:59:37;;;;;;;25.67;13.93;;;;;;;2.83;100.00;92906.81;6194726;23;20012;-77
2023/02/21 05:02:04;;;;;;;21.42;13.10;;;;;;;2.78;100.00;92906.72;6214610;23;20078;-77
2023/02/21 05:04:30;;;;;;;18.65;12.25;;;;;;;2.77;100.00;92905.16;6216896;23;20001;-77
2023/02/21 05:06:58;;;;;;;20.08;12.50;;;;;;;2.77;100.00;92899.97;6215503;23;20460;-77
2023/02/21 05:09:24;;;;;;;18.70;11.65;;;;;;;2.77;100.00;92899.97;6216941;23;20548;-77
2023/02/21 05:11:49;;;;;;;20.05;12.30;;;;;;;2.78;100.00;92893.81;6216328;23;20019;-77
2023/02/21 05:14:17;;;;;;;19.55;12.20;;;;;;;2.77;100.00;92898.19;6214716;23;20058;-77
2023/02/21 05:16:43;;;;;;;19.27;12.00;;;;;;;2.76;100.00;92899.19;6216461;23;20016;-77
2023/02/21 05:19:09;;;;;;;16.50;11.40;;;;;;;2.74;100.00;92895.28;6214401;23;20405;-77
2023/02/21 05:21:37;;;;;;;18.02;12.50;;;;;;;2.73;100.00;92889.31;6215351;23;20012;-77
2023/02/21 05:24:07;;;;;;;18.10;11.93;;;;;;;2.67;100.00;92878.06;6215404;23;20020;-77
2023/02/21 05:26:35;;;;;;;17.10;12.27;;;;;;;2.68;100.00;92882.25;6213993;23;20029;-77
2023/02/21 05:29:01;;;;;;;17.40;11.20;;;;;;;2.68;100.00;92887.41;6216287;23;20043;-77
2023/02/21 05:31:27;;;;;;;18.73;12.02;;;;;;;2.67;100.00;92885.06;6216139;23;20059;-76
2023/02/21 05:33:53;;;;;;;17.95;11.48;;;;;;;2.66;100.00;92892.03;6190260;23;20017;-77
2023/02/21 05:36:23;;;;;;;18.58;12.07;;;;;;;2.63;100.00;92889.88;6214504;23;20186;-77
2023/02/21 05:38:54;;;;;;;18.48;11.82;;;;;;;2.59;100.00;92883.63;6218614;23;20373;-77
2023/02/21 05:41:20;;;;;;;16.85;11.30;;;;;;;2.59;100.00;92885.38;6215837;23;20059;-77
2023/02/21 05:43:47;;;;;;;18.98;12.20;;;;;;;2.60;100.00;92892.94;6213791;23;20007;-77
2023/02/21 05:46:28;;;;;;;18.98;11.90;;;;;;;2.56;100.00;92881.47;6215869;23;20082;-77
2023/02/21 05:48:55;;;;;;;18.38;11.77;;;;;;;2.56;100.00;92889.22;6215993;23;20016;-77
2023/02/21 05:51:20;;;;;;;23.30;12.20;;;;;;;2.53;100.00;92887.09;6213988;23;20039;-77
2023/02/21 05:53:46;;;;;;;20.17;12.38;;;;;;;2.54;100.00;92887.88;6189289;23;20020;-77
2023/02/21 05:56:12;;;;;;;19.42;12.43;;;;;;;2.55;100.00;92889.47;6214897;23;20020;-77
2023/02/21 05:58:38;;;;;;;18.65;11.63;;;;;;;2.51;100.00;92886.53;6216130;23;20350;-77
2023/02/21 06:01:04;;;;;;;19.60;13.20;;;;;;;2.55;100.00;92892.81;6219060;23;20070;-77
2023/02/21 06:03:30;;;;;;;19.42;12.73;;;;;;;2.54;100.00;92890.47;6217523;23;20043;-77
2023/02/21 06:05:55;;;;;;;21.60;12.52;;;;;;;2.52;100.00;92893.25;6214917;23;20009;-77
2023/02/21 06:08:21;;;;;;;19.90;12.82;;;;;;;2.52;100.00;92893.25;6215634;23;20012;-77
2023/02/21 06:10:46;;;;;;;18.80;12.35;;;;;;;2.52;100.00;92892.47;6188800;23;20523;-77
2023/02/21 06:13:12;;;;;;;19.88;12.30;;;;;;;2.53;100.00;92894.06;6215493;23;20012;-77
2023/02/21 06:15:37;;;;;;;18.60;11.85;;;;;;;2.53;100.00;92889.69;6214631;23;20083;-77
2023/02/21 06:18:03;;;;;;;20.83;12.45;;;;;;;2.58;100.00;92892.38;6215284;23;20016;-77
2023/02/21 06:20:29;;;;;;;22.25;13.15;;;;;;;2.73;100.00;92894.50;6216415;23;20016;-78
2023/02/21 06:22:54;;;;;;;22.98;12.95;;;;;;;3.01;100.00;92895.53;6214067;23;20016;-77
2023/02/21 06:25:20;;;;;;;20.08;12.68;;;;;;;2.96;100.00;92888.47;6215164;23;20017;-77
2023/02/21 06:27:45;;;;;;;18.35;12.10;;;;;;;2.94;100.00;92890.50;6218356;23;20040;-77
2023/02/21 06:30:11;;;;;;;19.30;11.82;;;;;;;2.92;100.00;92898.47;6216181;23;20384;-77
2023/02/21 06:32:37;;;;;;;17.77;12.30;;;;;;;2.88;100.00;92896.56;6216060;23;20004;-77
2023/02/21 06:35:04;;;;;;;20.02;12.35;;;;;;;2.83;100.00;92893.91;6217045;23;20087;-77
2023/02/21 06:37:29;;;;;;;19.08;12.10;;;;;;;2.89;100.00;92898.16;6216350;23;20013;-77
2023/02/21 06:39:55;;;;;;;20.77;12.88;;;;;;;2.93;100.00;92899.28;6214867;23;20011;-78
2023/02/21 06:42:21;;;;;;;22.38;13.32;;;;;;;3.00;100.00;92899.94;6167073;23;20048;-80
2023/02/21 06:44:48;;;;;;;21.33;13.02;;;;;;;3.08;100.00;92896.19;6169397;23;20035;-81
2023/02/21 06:47:15;;;;;;;21.73;13.55;;;;;;;3.15;100.00;92898.66;6193104;23;20016;-81
2023/02/21 06:49:41;;;;;;;22.02;13.38;;;;;;;3.19;100.00;92904.94;6217572;23;20017;-81
2023/02/21 06:52:07;;;;;;;21.25;12.50;;;;;;;3.24;100.00;92912.78;6171785;23;20013;-81
2023/02/21 06:54:33;;;;;;;19.27;11.98;;;;;;;3.24;100.00;92900.66;6221487;23;20000;-82
2023/02/21 06:57:00;;;;;;;19.08;12.90;;;;;;;3.27;100.00;92909.75;6221030;23;20028;-79
2023/02/21 06:59:27;;;;;;;19.15;12.80;;;;;;;3.31;100.00;92910.84;6224659;23;20266;-81
2023/02/21 07:01:53;;;;;;;20.45;13.43;;;;;;;3.37;100.00;92914.31;6220112;23;20079;-81
2023/02/21 07:04:19;;;;;;;20.80;13.35;;;;;;;3.42;100.00;92906.66;6222427;23;20313;-81
2023/02/21 07:06:44;;;;;;;19.75;12.38;;;;;;;3.46;100.00;92903.38;6171687;23;20012;-79
2023/02/21 07:09:10;;;;;;;19.05;12.50;;;;;;;3.48;100.00;92911.69;6170929;23;20013;-81
2023/02/21 07:11:36;;;;;;;20.10;13.10;;;;;;;3.49;100.00;92907.28;6221045;23;20386;-79
2023/02/21 07:14:02;;;;;;;17.27;12.38;;;;;;;3.46;100.00;92908.53;6196166;23;20040;-81
2023/02/21 07:16:28;;;;;;;21.73;12.48;;;;;;;3.53;100.00;92919.56;6169971;23;20021;-80
2023/02/21 07:18:53;;;;;;;19.05;12.80;;;;;;;3.57;100.00;92919.09;6193399;23;20021;-79
2023/02/21 07:21:20;;;;;;;21.50;13.10;;;;;;;3.62;100.00;92919.16;6222749;23;20022;-79
2023/02/21 07:23:48;;;;;;;20.05;12.55;;;;;;;3.67;100.00;92927.03;6221556;23;20349;-80
2023/02/21 07:26:14;;;;;;;19.13;12.98;;;;;;;3.70;100.00;92934.34;6223103;23;20504;-80
2023/02/21 07:28:39;;;;;;;19.35;12.75;;;;;;;3.73;100.00;92932.06;6222805;23;20016;-79
2023/02/21 07:31:05;;;;;;;19.42;12.70;;;;;;;3.79;100.00;92932.94;6222449;23;20020;-81
2023/02/21 07:33:30;;;;;;;21.60;12.43;;;;;;;3.83;100.00;92939.22;6223523;23;20460;-80
2023/02/21 07:35:56;;;;;;;18.60;12.65;;;;;;;3.86;100.00;92933.56;6223327;23;20028;-80
2023/02/21 07:38:27;;;;;;;19.85;12.48;;;;;;;3.90;100.00;92934.69;6224340;23;20008;-80
2023/02/21 07:40:58;;;;;;;20.33;13.07;;;;;;;3.96;100.00;92933.75;6223892;23;20060;-80
2023/02/21 07:43:25;;;;;;;19.27;12.05;;;;;;;4.00;100.00;92939.25;6222543;23;20015;-80
2023/02/21 07:45:51;;;;;;;19.42;12.48;;;;;;;4.02;100.00;92928.66;6196459;23;19996;-81
2023/02/21 07:48:16;;;;;;;24.17;14.30;;;;;;;4.08;100.00;92931.09;6222203;23;20019;-79
2023/02/21 07:50:43;;;;;;;20.13;13.25;;;;;;;4.32;100.00;92925.75;6197865;23;20028;-80
2023/02/21 07:53:11;;;;;;;24.73;14.00;;;;;;;4.45;100.00;92928.00;6223165;23;20004;-80
2023/02/21 07:55:36;;;;;;;17.42;11.07;;;;;;;4.46;100.00;92926.19;6198294;23;20013;-80
2023/02/21 07:58:03;;;;;;;20.20;12.52;;;;;;;4.52;100.00;92920.06;6224310;23;20044;-80
2023/02/21 08:00:29;;;;;;;21.75;13.07;;;;;;;4.55;100.00;92935.19;6198283;23;20026;-80
2023/02/21 08:02:54;;;;;;;22.20;14.07;;;;;;;4.54;100.00;92928.41;6198709;23;20016;-80
2023/02/21 08:05:20;;;;;;;25.67;14.65;;;;;;;4.55;100.00;92928.19;6197365;23;20036;-81
2023/02/21 08:07:46;;;;;;;22.92;14.38;;;;;;;4.48;100.00;92929.34;6196930;23;20000;-81
2023/02/21 08:10:18;;;;;;;22.10;13.65;;;;;;;4.41;100.00;92923.53;6172213;23;20051;-81
2023/02/21 08:12:44;;;;;;;25.88;15.13;;;;;;;4.42;100.00;92925.13;6173793;23;20013;-81
2023/02/21 08:15:10;;;;;;;26.60;15.85;;;;;;;4.49;100.00;92921.34;6197643;23;20019;-80
2023/02/21 08:17:35;;;;;;;23.60;15.68;;;;;;;4.51;100.00;92923.69;6223064;23;20005;-81
2023/02/21 08:20:05;;;;;;;24.55;15.00;;;;;;;4.57;100.00;92920.13;6224181;23;20019;-81
2023/02/21 08:22:31;;;;;;;23.95;14.70;;;;;;;4.69;100.00;92926.03;6198071;23;20056;-81
2023/02/21 08:24:56;;;;;;;24.35;15.45;;;;;;;4.58;100.00;92919.13;6199948;23;20526;-81
2023/02/21 08:27:22;;;;;;;25.50;15.38;;;;;;;4.62;100.00;92922.03;6199921;23;20012;-81
2023/02/21 08:29:51;;;;;;;25.88;15.80;;;;;;;4.64;100.00;92923.38;6175787;23;20044;-81
2023/02/21 08:32:18;;;;;;;23.02;14.77;;;;;;;4.86;100.00;92930.38;6226957;23;20024;-81
2023/02/21 08:34:47;;;;;;;24.02;15.18;;;;;;;4.89;100.00;92927.34;6226710;23;20012;-81
2023/02/21 08:37:16;;;;;;;25.65;15.52;;;;;;;4.91;100.00;92927.84;6226090;23;20047;-81
2023/02/21 08:39:51;;;;;;;25.55;15.93;;;;;;;4.92;100.00;92919.06;6226717;23;20001;-80
2023/02/21 08:42:20;;;;;;;26.13;15.98;;;;;;;4.91;100.00;92917.47;6198868;23;20035;-81
2023/02/21 08:44:46;;;;;;;27.83;17.05;;;;;;;4.98;100.00;92928.47;6225490;23;20012;-80
2023/02/21 08:47:13;;;;;;;26.10;16.63;;;;;;;5.03;100.00;92932.94;6225125;23;20015;-80
2023/02/21 08:49:41;;;;;;;26.73;16.70;;;;;;;5.11;100.00;92924.72;6199396;23;20024;-81
2023/02/21 08:52:07;;;;;;;24.83;14.93;;;;;;;5.23;100.00;92925.41;6226015;23;20032;-79
2023/02/21 08:54:33;;;;;;;24.52;15.23;;;;;;;5.26;100.00;92921.53;6225467;23;20039;-81
2023/02/21 08:56:59;;;;;;;24.65;15.68;;;;;;;5.28;100.00;92917.66;6199225;23;20008;-80
2023/02/21 08:59:26;;;;;;;25.80;15.77;;;;;;;5.26;100.00;92914.53;6172273;23;20126;-81
2023/02/21 09:01:52;;;;;;;25.00;14.50;;;;;;;5.31;100.00;92916.41;6222931;23;20013;-80
2023/02/21 09:04:17;;;;;;;26.27;15.48;;;;;;;5.33;100.00;92917.72;6223496;23;20020;-81
2023/02/21 09:06:43;;;;;;;21.55;14.40;;;;;;;5.66;100.00;92912.63;6199189;23;20016;-81
2023/02/21 09:09:08;;;;;;;22.23;14.70;;;;;;;6.10;100.00;92915.13;6198967;23;20024;-81
2023/02/21 09:11:34;;;;;;;23.02;14.45;;;;;;;6.56;100.00;92910.25;6225688;23;20038;-81
2023/02/21 09:13:59;;;;;;;24.77;15.85;;;;;;;7.38;100.00;92923.69;6199334;23;20028;-81
2023/02/21 09:16:25;;;;;;;21.38;15.13;;;;;;;8.33;100.00;92911.09;6199647;23;20397;-79
2023/02/21 09:19:00;;;;;;;20.17;14.05;;;;;;;9.22;100.00;92910.69;6199142;23;20016;-81
2023/02/21 09:21:26;;;;;;;20.83;13.82;;;;;;;9.76;100.00;92915.16;6176540;23;20112;-80
2023/02/21 09:23:55;;;;;;;20.85;12.98;;;;;;;9.70;100.00;92913.59;6200021;23;20021;-81
2023/02/21 09:26:23;;;;;;;19.70;13.35;;;;;;;9.70;100.00;92908.38;6214708;23;20044;-80
2023/02/21 09:28:52;;;;;;;21.15;13.07;;;;;;;10.15;100.00;92911.75;6225397;23;20065;-82
2023/02/21 09:31:19;;;;;;;20.52;14.05;;;;;;;10.42;100.00;92910.53;6224697;23;20084;-80
2023/02/21 09:33:45;;;;;;;19.15;13.55;;;;;;;10.57;100.00;92907.03;6224628;23;20013;-79
2023/02/21 09:36:11;;;;;;;21.33;13.13;;;;;;;10.53;100.00;92912.03;6226059;23;20012;-79
2023/02/21 09:38:40;;;;;;;16.05;11.27;;;;;;;10.60;100.00;92915.13;6223946;23;20026;-79
2023/02/21 09:41:10;;;;;;;13.45;8.45;;;;;;;10.44;100.00;92913.66;6222182;23;20009;-80
2023/02/21 09:43:39;;;;;;;18.77;13.07;;;;;;;10.49;100.00;92911.03;6222581;23;20008;-80
2023/02/21 09:46:39;;;;;;;10.45;7.72;;;;;;;10.20;100.00;92914.34;6224090;23;20028;-78
2023/02/21 09:49:38;;;;;;;14.63;10.75;;;;;;;10.19;100.00;92912.78;6221121;23;20468;-81
2023/02/21 09:52:05;;;;;;;11.82;9.15;;;;;;;10.47;100.00;92913.16;6215531;23;20016;-81
2023/02/21 09:54:34;;;;;;;16.58;11.52;;;;;;;10.27;100.00;92908.00;6223867;23;20004;-81
2023/02/21 09:57:02;;;;;;;13.60;9.55;;;;;;;10.52;100.00;92900.00;6222979;23;20012;-80
2023/02/21 09:59:28;;;;;;;10.25;7.65;;;;;;;10.73;98.03;92910.28;6224530;22;20020;-80
2023/02/21 10:02:37;;;;;;;15.32;11.65;;;;;;;10.84;99.20;92898.66;6224991;23;20451;-81
2023/02/21 10:05:22;;;;;;;16.50;11.80;;;;;;;10.68;99.40;92897.25;6225191;23;20012;-79
2023/02/21 10:08:05;;;;;;;12.65;8.55;;;;;;;10.73;99.08;92895.34;6224452;23;20020;-81
2023/02/21 10:10:46;;;;;;;12.77;8.77;;;;;;;10.84;100.00;92894.19;6226278;23;20484;-81
2023/02/21 10:13:40;;;;;;;16.98;12.77;;;;;;;10.58;98.67;92891.06;6224987;23;20017;-80
2023/02/21 10:16:19;;;;;;;18.00;11.63;;;;;;;11.02;98.76;92894.56;6223987;23;20060;-81
2023/02/21 10:19:18;;;;;;;16.08;11.15;;;;;;;11.35;96.45;92887.63;6224272;23;20008;-81
2023/02/21 10:21:47;;;;;;;10.35;7.20;;;;;;;11.43;95.38;92881.75;6222931;23;20028;-82
2023/02/21 10:24:21;;;;;;;17.45;12.13;;;;;;;11.76;92.51;92884.50;6224980;23;20015;-82
2023/02/21 10:26:59;;;;;;;17.88;12.45;;;;;;;11.48;93.13;92893.25;6224798;23;20400;-81
2023/02/21 10:29:31;;;;;;;15.75;11.93;;;;;;;11.79;90.93;92883.16;6223523;23;20012;-81
2023/02/21 10:32:02;;;;;;;16.20;12.20;;;;;;;11.84;90.19;92885.69;6197738;23;20432;-82
2023/02/21 10:34:29;;;;;;;17.55;12.50;;;;;;;11.99;88.72;92882.13;6225557;23;20013;-82
2023/02/21 10:37:03;;;;;;;17.02;11.57;;;;;;;11.87;90.68;92880.69;6198943;23;20007;-80
2023/02/21 10:39:52;;;;;;;14.00;9.85;;;;;;;11.78;90.92;92885.00;6225602;23;20036;-80
2023/02/21 10:42:38;;;;;;;12.50;8.63;;;;;;;11.56;89.99;92890.78;6198962;23;20080;-81
2023/02/21 10:45:06;;;;;;;19.00;12.65;;;;;;;11.95;90.49;92879.28;6227045;23;20008;-80
2023/02/21 10:48:02;;;;;;;21.38;13.00;;;;;;;11.81;90.48;92881.78;6225467;23;20007;-82
2023/02/21 10:50:43;;;;;;;14.70;10.82;;;;;;;11.44;91.78;92878.09;6226818;23;20017;-82
2023/02/21 10:53:32;;;;;;;14.20;10.50;;;;;;;12.01;90.41;92880.00;6225073;23;20032;-81
2023/02/21 10:56:14;;;;;;;16.42;11.85;;;;;;;12.14;91.83;92878.50;6199782;23;20012;-79
2023/02/21 10:58:45;;;;;;;14.65;10.93;;;;;;;12.06;88.31;92875.44;6226831;23;20015;-79
2023/02/21 11:01:20;;;;;;;13.35;9.68;;;;;;;12.19;89.40;92871.31;6199017;23;20008;-82
2023/02/21 11:03:49;;;;;;;14.18;10.27;;;;;;;12.54;88.12;92876.28;6227155;23;20017;-81
2023/02/21 11:06:38;;;;;;;14.98;10.30;;;;;;;12.65;86.47;92870.59;6199371;23;20016;-82
2023/02/21 11:09:28;;;;;;;12.00;7.35;;;;;;;12.13;87.98;92877.69;6226141;23;20423;-80
2023/02/21 11:12:05;;;;;;;12.57;8.02;;;;;;;12.31;88.05;92867.47;6226499;23;20023;-80
2023/02/21 11:14:33;;;;;;;14.77;10.30;;;;;;;12.15;90.87;92864.31;6200855;23;20039;-80
2023/02/21 11:17:15;;;;;;;13.77;10.95;;;;;;;12.16;90.00;92861.41;6226099;23;20004;-80
2023/02/21 11:19:42;;;;;;;;;;;;;;;12.31;90.22;92860.34;6200895;23;20005;-81
2023/02/21 11:22:08;;;;;;;13.13;9.18;;;;;;;12.15;88.58;92851.19;6227005;23;19919;-81
2023/02/21 11:24:50;;;;;;;8.55;5.57;;;;;;;11.94;88.88;92848.88;6200909;23;20000;-81
2023/02/21 11:27:16;;;;;;;11.57;6.75;;;;;;;11.57;91.35;92855.66;6225028;23;20449;-80
2023/02/21 11:29:45;;;;;;;14.48;9.63;;;;;;;11.42;93.36;92846.13;6225711;23;20009;-79
2023/02/21 11:32:18;;;;;;;9.88;7.20;;;;;;;11.29;94.05;92838.19;6225411;23;20012;-81
2023/02/21 11:34:47;;;;;;;8.27;6.25;;;;;;;11.08;94.04;92837.63;6227085;23;20043;-80
2023/02/21 11:37:14;;;;;;;7.13;5.22;;;;;;;11.03;96.37;92830.63;6226322;23;20077;-80
2023/02/21 11:39:40;;;;;;;6.47;4.53;;;;;;;11.13;96.00;92835.75;6226879;23;20009;-80
2023/02/21 11:42:31;;;;;;;6.15;4.03;;;;;;;11.20;93.61;92835.41;6226831;23;20017;-81
2023/02/21 11:45:20;;;;;;;6.90;5.10;;;;;;;11.28;96.81;92815.66;6226963;23;20012;-80
2023/02/21 11:48:03;;;;;;;7.97;6.10;;;;;;;11.24;96.61;92815.44;6226485;23;20016;-78
2023/02/21 11:50:33;;;;;;;9.52;6.40;;;;;;;11.47;96.04;92811.22;6226734;23;20008;-81
2023/02/21 11:53:16;;;;;;;8.88;6.68;;;;;;;11.58;94.17;92814.47;6200431;23;20333;-79
2023/02/21 11:55:53;;;;;;;10.18;6.97;;;;;;;11.71;91.73;92802.47;6201000;23;20051;-80
2023/02/21 11:58:50;;;;;;;8.10;5.85;;;;;;;11.58;93.29;92810.00;6227106;23;20127;-82
2023/02/21 12:01:26;;;;;;;8.63;5.82;;;;;;;11.60;93.98;92797.38;6226409;23;20048;-81
2023/02/21 12:04:29;;;;;;;4.72;3.42;;;;;;;11.67;90.00;92802.28;6227332;23;20008;-79
2023/02/21 12:07:23;;;;;;;8.98;6.10;;;;;;;11.61;91.33;92793.69;6188951;23;20012;-80
2023/02/21 12:10:21;;;;;;;8.23;6.10;;;;;;;11.56;91.98;92790.38;6199475;23;20019;-79
2023/02/21 12:13:26;;;;;;;6.72;5.28;;;;;;;11.67;91.53;92782.06;6191858;23;20020;-80
2023/02/21 12:16:32;;;;;;;6.25;4.18;;;;;;;11.75;90.50;92783.25;6200572;23;20086;-80
2023/02/21 12:19:14;;;;;;;8.35;5.32;;;;;;;11.75;92.40;92772.78;6225631;23;20027;-80
2023/02/21 12:21:59;;;;;;;8.25;6.13;;;;;;;11.59;92.09;92766.22;6224718;23;20104;-80
2023/02/21 12:25:13;;;;;;;7.30;5.45;;;;;;;11.54;91.39;92761.81;6227324;23;20095;-80
2023/02/21 12:27:44;;;;;;;;;;;;;;;11.38;93.31;92761.25;6217504;23;20091;-81
2023/02/21 12:30:25;;;;;;;8.02;4.47;;;;;;;11.40;94.11;92767.00;6200395;23;19911;-78
2023/02/21 12:33:19;;;;;;;7.65;5.82;;;;;;;11.58;92.28;92762.03;6199482;23;20008;-81
2023/02/21 12:36:12;;;;;;;8.45;5.55;;;;;;;11.44;95.16;92757.50;6227946;23;20383;-80
2023/02/21 12:38:53;;;;;;;7.85;5.50;;;;;;;11.73;91.21;92753.94;6228143;23;20016;-82
2023/02/21 12:42:16;;;;;;;5.75;4.05;;;;;;;11.69;92.14;92757.44;6201049;23;20062;-81
2023/02/21 12:45:17;;;;;;;7.65;5.40;;;;;;;11.26;94.95;92755.69;6104374;23;20021;-79
2023/02/21 12:47:54;;;;;;;10.32;6.25;;;;;;;11.52;92.03;92747.44;6057457;23;20065;-81
2023/02/21 12:50:34;;;;;;;7.22;5.03;;;;;;;11.09;95.43;92744.91;6214646;23;20024;-79
2023/02/21 12:53:02;;;;;;;9.65;5.00;;;;;;;11.01;96.58;92744.47;6226395;23;20051;-81
2023/02/21 12:55:46;;;;;;;7.68;4.47;;;;;;;10.87;97.11;92754.06;6226724;23;20005;-79
2023/02/21 12:58:23;;;;;;;5.20;3.60;;;;;;;10.96;95.39;92741.13;6226192;23;20020;-81
2023/02/21 13:00:55;;;;;;;5.68;3.85;;;;;;;10.72;97.93;92735.94;6200650;23;20008;-81
2023/02/21 13:03:29;;;;;;;5.90;3.67;;;;;;;11.08;92.72;92738.88;6228251;23;20350;-81
2023/02/21 13:06:24;;;;;;;4.95;3.33;;;;;;;11.09;94.50;92729.19;6228307;23;20021;-80
2023/02/21 13:09:05;;;;;;;5.43;3.95;;;;;;;10.85;92.61;92724.75;6214348;23;20012;-80
2023/02/21 13:11:55;;;;;;;7.97;4.55;;;;;;;11.26;94.42;92716.38;6227406;23;20012;-81
2023/02/21 13:14:32;;;;;;;6.43;4.07;;;;;;;11.63;92.21;92712.91;6227127;23;20013;-80
2023/02/21 13:16:58;;;;;;;7.32;3.88;;;;;;;11.72;90.94;92709.63;6226439;23;20635;-79
2023/02/21 13:19:25;;;;;;;4.70;3.15;;;;;;;11.71;89.32;92708.88;6176333;23;20035;-80
2023/02/21 13:22:17;;;;;;;7.47;4.95;;;;;;;11.78;85.85;92709.28;6225550;23;20082;-80
2023/02/21 13:25:00;;;;;;;4.88;3.05;;;;;;;11.58;86.85;92693.88;6228244;23;20341;-81
2023/02/21 13:28:15;;;;;;;7.00;4.35;;;;;;;11.58;91.19;92705.13;6228164;23;20349;-78
2023/02/21 13:30:46;;;;;;;7.43;4.85;;;;;;;11.54;86.93;92693.66;6191448;23;20047;-77
2023/02/21 13:33:25;;;;;;;6.40;4.07;;;;;;;11.65;91.37;92699.53;6213504;23;20433;-77
2023/02/21 13:35:51;;;;;;;4.53;2.95;;;;;;;11.73;84.18;92696.25;6188457;23;20236;-77
2023/02/21 13:38:19;;;;;;;5.95;3.22;;;;;;;11.72;89.60;92692.06;6215615;23;20084;-77
2023/02/21 13:40:53;;;;;;;6.68;4.03;;;;;;;11.80;89.03;92688.78;6187769;23;20011;-78
2023/02/21 13:43:33;;;;;;;6.45;4.22;;;;;;;12.04;87.44;92680.78;6216098;23;20012;-77
2023/02/21 13:46:44;;;;;;;5.90;4.22;;;;;;;11.95;85.10;92681.75;6216354;23;20008;-77
2023/02/21 13:49:37;;;;;;;5.55;4.28;;;;;;;11.85;88.98;92688.69;6190873;23;20460;-78
2023/02/21 13:52:18;;;;;;;5.25;3.72;;;;;;;11.75;89.17;92683.59;6220233;23;20314;-78
2023/02/21 13:55:08;;;;;;;5.30;3.42;;;;;;;11.82;89.59;92684.03;6194651;23;20035;-77
2023/02/21 13:57:39;;;;;;;6.70;4.28;;;;;;;11.65;88.35;92676.69;6219217;23;20050;-77
2023/02/21 14:00:23;;;;;;;6.78;4.63;;;;;;;11.52;87.53;92676.66;6215482;23;20004;-76
2023/02/21 14:03:17;;;;;;;8.68;4.63;;;;;;;11.82;89.32;92670.91;6214880;23;20015;-77